Terminal Aerodrome Forecast
Issued by NWS Charleston, WV

Current Version | Previous Version | Graphics & Text | Print | Product List | Glossary On
Versions: 1 2 3 4 5 6 7 8 9 10 11 12 13 14 15 16 17 18 19 20 21
000
FTUS41 KRLX 051100
TAFHTS
TAF
KHTS 051140Z 0512/0612 00000KT P6SM BKN090
     FM051300 22004KT P6SM SCT100
     FM051700 25006KT P6SM SCT050
     FM060100 00000KT P6SM SCT080=

USA.gov is the U.S. government's official web portal to all federal, state and local government web resources and services.